Overview Statistics Trail Chart Weather Telemetry Raw packets
 

This is the latest recevied weather packets stored in our database for station/object LRTR. If no packets are shown the sender has not sent any weather packets the latest 10 day(s).

<< 21 22 23 24 25 26 27 >>
Time Temp. Humidity Pressure Rain* Wind** Luminosity Snow
1777231985 7.22° C 66% 1020 hPa - - - -
1777231086 7.78° C 62% 1020 hPa - - - -
1777230185 7.78° C 62% 1020 hPa - - - -
1777229285 8.89° C 58% 1019 hPa - - - -
1777228385 8.89° C 58% 1019 hPa - - - -
1777227502 11.11° C 50% 1019 hPa - - - -
1777226585 11.11° C 50% 1019 hPa - - - -
1777225685 12.78° C 41% 1018 hPa - - - -
1777224785 12.78° C 41% 1018 hPa - - - -
1777223886 15° C 39% 1017 hPa - - - -
1777222984 15° C 39% 1017 hPa - - - -
1777222085 16.11° C 36% 1017 hPa - - - -
1777221185 16.11° C 36% 1017 hPa - - - -
1777220284 17.22° C 34% 1017 hPa - - - -
1777219385 17.22° C 34% 1017 hPa - - - -
1777218482 18.89° C 30% 1017 hPa - - - -
1777217586 18.89° C 30% 1017 hPa - - - -
1777216685 20° C 24% 1016 hPa - - - -
1777215785 20° C 24% 1016 hPa - - - -
1777214885 20° C 26% 1016 hPa - - - -
1777213985 20° C 26% 1016 hPa - - - -
1777213085 21.11° C 25% 1016 hPa - - - -
1777212185 21.11° C 25% 1016 hPa - - - -
1777211285 21.11° C 25% 1016 hPa - - - -
1777210384 21.11° C 25% 1016 hPa - - - -

* Rain since midnight (hover to see other rain measurements)
** Current wind speed in m/s (hover to see current wind gust speed)